sensor_id;sensor_type;location;lat;lon;timestamp;P1;durP1;ratioP1;P2;durP2;ratioP2
35372;SDS011;21476;51.652;7.852;2022-08-25T00:01:39;7.65;;;3.78;;
35372;SDS011;21476;51.652;7.852;2022-08-25T00:04:09;7.97;;;3.10;;
35372;SDS011;21476;51.652;7.852;2022-08-25T00:06:36;4.70;;;2.90;;
35372;SDS011;21476;51.652;7.852;2022-08-25T00:09:03;6.15;;;3.58;;
35372;SDS011;21476;51.652;7.852;2022-08-25T00:11:30;6.65;;;2.92;;
35372;SDS011;21476;51.652;7.852;2022-08-25T00:13:59;7.72;;;3.20;;
35372;SDS011;21476;51.652;7.852;2022-08-25T00:16:28;8.48;;;3.38;;
35372;SDS011;21476;51.652;7.852;2022-08-25T00:18:58;5.72;;;3.00;;
35372;SDS011;21476;51.652;7.852;2022-08-25T00:21:27;5.85;;;3.00;;
35372;SDS011;21476;51.652;7.852;2022-08-25T00:23:52;11.65;;;3.78;;
35372;SDS011;21476;51.652;7.852;2022-08-25T00:26:18;9.13;;;5.00;;
35372;SDS011;21476;51.652;7.852;2022-08-25T00:28:45;11.20;;;6.22;;
35372;SDS011;21476;51.652;7.852;2022-08-25T00:31:11;7.03;;;3.90;;
35372;SDS011;21476;51.652;7.852;2022-08-25T00:33:40;11.68;;;4.47;;
35372;SDS011;21476;51.652;7.852;2022-08-25T00:36:07;14.43;;;4.32;;
35372;SDS011;21476;51.652;7.852;2022-08-25T00:38:34;9.80;;;5.95;;
35372;SDS011;21476;51.652;7.852;2022-08-25T00:41:02;9.93;;;5.18;;
35372;SDS011;21476;51.652;7.852;2022-08-25T00:46:05;7.28;;;3.17;;
35372;SDS011;21476;51.652;7.852;2022-08-25T00:48:34;6.38;;;3.63;;
35372;SDS011;21476;51.652;7.852;2022-08-25T00:51:02;10.40;;;6.07;;
35372;SDS011;21476;51.652;7.852;2022-08-25T00:53:30;8.60;;;4.72;;
35372;SDS011;21476;51.652;7.852;2022-08-25T00:55:56;6.57;;;3.47;;
35372;SDS011;21476;51.652;7.852;2022-08-25T00:58:23;7.28;;;4.30;;
35372;SDS011;21476;51.652;7.852;2022-08-25T01:00:52;7.38;;;4.07;;
35372;SDS011;21476;51.652;7.852;2022-08-25T01:03:20;10.88;;;5.18;;
35372;SDS011;21476;51.652;7.852;2022-08-25T01:05:47;6.43;;;3.53;;
35372;SDS011;21476;51.652;7.852;2022-08-25T01:08:14;7.63;;;3.47;;
35372;SDS011;21476;51.652;7.852;2022-08-25T01:10:42;6.43;;;3.88;;
35372;SDS011;21476;51.652;7.852;2022-08-25T01:13:16;5.57;;;3.85;;
35372;SDS011;21476;51.652;7.852;2022-08-25T01:15:46;6.25;;;3.47;;
35372;SDS011;21476;51.652;7.852;2022-08-25T01:18:14;10.48;;;3.88;;
35372;SDS011;21476;51.652;7.852;2022-08-25T01:20:40;7.72;;;4.18;;
35372;SDS011;21476;51.652;7.852;2022-08-25T01:23:06;8.07;;;4.32;;
35372;SDS011;21476;51.652;7.852;2022-08-25T01:25:50;6.25;;;3.67;;
35372;SDS011;21476;51.652;7.852;2022-08-25T01:28:27;9.10;;;4.22;;
35372;SDS011;21476;51.652;7.852;2022-08-25T01:30:53;7.05;;;3.80;;
35372;SDS011;21476;51.652;7.852;2022-08-25T01:33:19;6.60;;;3.50;;
35372;SDS011;21476;51.652;7.852;2022-08-25T01:35:44;5.57;;;3.25;;
35372;SDS011;21476;51.652;7.852;2022-08-25T01:38:11;7.60;;;3.45;;
35372;SDS011;21476;51.652;7.852;2022-08-25T01:40:37;6.90;;;3.40;;
35372;SDS011;21476;51.652;7.852;2022-08-25T01:45:44;5.95;;;2.63;;
35372;SDS011;21476;51.652;7.852;2022-08-25T01:48:11;5.70;;;3.20;;
35372;SDS011;21476;51.652;7.852;2022-08-25T01:50:38;7.25;;;3.50;;
35372;SDS011;21476;51.652;7.852;2022-08-25T01:53:12;10.85;;;3.15;;
35372;SDS011;21476;51.652;7.852;2022-08-25T01:55:45;8.13;;;3.05;;
35372;SDS011;21476;51.652;7.852;2022-08-25T02:00:50;6.63;;;3.80;;
35372;SDS011;21476;51.652;7.852;2022-08-25T02:03:18;14.85;;;3.63;;
35372;SDS011;21476;51.652;7.852;2022-08-25T02:05:44;5.93;;;3.50;;
35372;SDS011;21476;51.652;7.852;2022-08-25T02:08:10;6.97;;;3.53;;
35372;SDS011;21476;51.652;7.852;2022-08-25T02:10:36;7.28;;;3.95;;
35372;SDS011;21476;51.652;7.852;2022-08-25T02:13:03;9.00;;;3.60;;
35372;SDS011;21476;51.652;7.852;2022-08-25T02:15:29;7.40;;;3.55;;
35372;SDS011;21476;51.652;7.852;2022-08-25T02:17:56;7.72;;;4.20;;
35372;SDS011;21476;51.652;7.852;2022-08-25T02:20:22;11.27;;;3.85;;
35372;SDS011;21476;51.652;7.852;2022-08-25T02:22:49;7.93;;;3.72;;
35372;SDS011;21476;51.652;7.852;2022-08-25T02:25:15;9.82;;;3.92;;
35372;SDS011;21476;51.652;7.852;2022-08-25T02:27:41;9.20;;;4.88;;
35372;SDS011;21476;51.652;7.852;2022-08-25T02:30:07;7.93;;;3.90;;
35372;SDS011;21476;51.652;7.852;2022-08-25T02:32:34;12.65;;;4.07;;
35372;SDS011;21476;51.652;7.852;2022-08-25T02:34:59;9.57;;;4.60;;
35372;SDS011;21476;51.652;7.852;2022-08-25T02:37:25;9.40;;;3.83;;
35372;SDS011;21476;51.652;7.852;2022-08-25T02:39:51;6.28;;;3.80;;
35372;SDS011;21476;51.652;7.852;2022-08-25T02:42:16;9.18;;;4.55;;
35372;SDS011;21476;51.652;7.852;2022-08-25T02:44:42;7.18;;;4.10;;
35372;SDS011;21476;51.652;7.852;2022-08-25T02:47:08;7.00;;;4.07;;
35372;SDS011;21476;51.652;7.852;2022-08-25T02:49:34;7.28;;;3.88;;
35372;SDS011;21476;51.652;7.852;2022-08-25T02:52:00;6.32;;;3.63;;
35372;SDS011;21476;51.652;7.852;2022-08-25T02:54:26;5.18;;;3.40;;
35372;SDS011;21476;51.652;7.852;2022-08-25T02:56:51;6.22;;;3.95;;
35372;SDS011;21476;51.652;7.852;2022-08-25T02:59:17;9.10;;;5.50;;
35372;SDS011;21476;51.652;7.852;2022-08-25T03:01:43;8.57;;;4.60;;
35372;SDS011;21476;51.652;7.852;2022-08-25T03:04:09;7.85;;;4.65;;
35372;SDS011;21476;51.652;7.852;2022-08-25T03:06:35;8.40;;;4.70;;
35372;SDS011;21476;51.652;7.852;2022-08-25T03:09:01;8.25;;;4.63;;
35372;SDS011;21476;51.652;7.852;2022-08-25T03:11:28;8.40;;;4.78;;
35372;SDS011;21476;51.652;7.852;2022-08-25T03:13:54;7.00;;;4.25;;
35372;SDS011;21476;51.652;7.852;2022-08-25T03:16:20;6.90;;;4.10;;
35372;SDS011;21476;51.652;7.852;2022-08-25T03:18:46;7.78;;;4.05;;
35372;SDS011;21476;51.652;7.852;2022-08-25T03:21:13;7.55;;;4.00;;
35372;SDS011;21476;51.652;7.852;2022-08-25T03:23:39;6.35;;;4.28;;
35372;SDS011;21476;51.652;7.852;2022-08-25T03:26:06;12.60;;;4.80;;
35372;SDS011;21476;51.652;7.852;2022-08-25T03:28:50;8.32;;;4.43;;
35372;SDS011;21476;51.652;7.852;2022-08-25T03:31:16;7.43;;;4.30;;
35372;SDS011;21476;51.652;7.852;2022-08-25T03:33:42;6.97;;;4.20;;
35372;SDS011;21476;51.652;7.852;2022-08-25T03:36:08;12.20;;;4.30;;
35372;SDS011;21476;51.652;7.852;2022-08-25T03:38:36;6.53;;;4.32;;
35372;SDS011;21476;51.652;7.852;2022-08-25T03:41:09;8.57;;;4.82;;
35372;SDS011;21476;51.652;7.852;2022-08-25T03:43:40;10.52;;;4.68;;
35372;SDS011;21476;51.652;7.852;2022-08-25T03:46:06;10.88;;;4.95;;
35372;SDS011;21476;51.652;7.852;2022-08-25T03:48:32;9.90;;;4.72;;
35372;SDS011;21476;51.652;7.852;2022-08-25T03:50:57;10.00;;;5.15;;
35372;SDS011;21476;51.652;7.852;2022-08-25T03:53:23;7.75;;;4.97;;
35372;SDS011;21476;51.652;7.852;2022-08-25T03:55:49;11.10;;;5.10;;
35372;SDS011;21476;51.652;7.852;2022-08-25T03:58:15;8.00;;;4.90;;
35372;SDS011;21476;51.652;7.852;2022-08-25T04:00:42;7.88;;;5.25;;
35372;SDS011;21476;51.652;7.852;2022-08-25T04:03:08;7.65;;;5.43;;
35372;SDS011;21476;51.652;7.852;2022-08-25T04:05:34;9.27;;;4.68;;
35372;SDS011;21476;51.652;7.852;2022-08-25T04:08:00;10.43;;;5.88;;
35372;SDS011;21476;51.652;7.852;2022-08-25T04:10:26;9.48;;;5.43;;
35372;SDS011;21476;51.652;7.852;2022-08-25T04:12:51;14.75;;;5.65;;
35372;SDS011;21476;51.652;7.852;2022-08-25T04:15:17;11.68;;;5.72;;
35372;SDS011;21476;51.652;7.852;2022-08-25T04:17:43;9.48;;;5.70;;
35372;SDS011;21476;51.652;7.852;2022-08-25T04:20:09;11.88;;;5.72;;
35372;SDS011;21476;51.652;7.852;2022-08-25T04:22:36;9.05;;;5.82;;
35372;SDS011;21476;51.652;7.852;2022-08-25T04:25:03;11.23;;;5.38;;
35372;SDS011;21476;51.652;7.852;2022-08-25T04:27:29;8.15;;;6.03;;
35372;SDS011;21476;51.652;7.852;2022-08-25T04:29:55;8.27;;;5.57;;
35372;SDS011;21476;51.652;7.852;2022-08-25T04:32:21;10.82;;;6.43;;
35372;SDS011;21476;51.652;7.852;2022-08-25T04:34:47;11.07;;;6.30;;
35372;SDS011;21476;51.652;7.852;2022-08-25T04:37:13;14.57;;;6.47;;
35372;SDS011;21476;51.652;7.852;2022-08-25T04:39:38;12.93;;;7.70;;
35372;SDS011;21476;51.652;7.852;2022-08-25T04:42:04;16.98;;;8.00;;
35372;SDS011;21476;51.652;7.852;2022-08-25T04:44:30;20.10;;;8.65;;
35372;SDS011;21476;51.652;7.852;2022-08-25T04:46:56;20.08;;;8.18;;
35372;SDS011;21476;51.652;7.852;2022-08-25T04:49:22;13.32;;;6.78;;
35372;SDS011;21476;51.652;7.852;2022-08-25T04:51:48;11.88;;;7.32;;
35372;SDS011;21476;51.652;7.852;2022-08-25T04:54:14;10.40;;;6.45;;
35372;SDS011;21476;51.652;7.852;2022-08-25T04:56:41;16.20;;;8.60;;
35372;SDS011;21476;51.652;7.852;2022-08-25T04:59:09;11.60;;;6.75;;
35372;SDS011;21476;51.652;7.852;2022-08-25T05:01:36;10.85;;;6.93;;
35372;SDS011;21476;51.652;7.852;2022-08-25T05:04:03;14.27;;;6.25;;
35372;SDS011;21476;51.652;7.852;2022-08-25T05:06:31;12.07;;;7.05;;
35372;SDS011;21476;51.652;7.852;2022-08-25T05:08:57;14.10;;;6.47;;
35372;SDS011;21476;51.652;7.852;2022-08-25T05:11:24;19.42;;;6.90;;
35372;SDS011;21476;51.652;7.852;2022-08-25T05:13:51;18.10;;;5.78;;
35372;SDS011;21476;51.652;7.852;2022-08-25T05:16:19;18.48;;;5.75;;
35372;SDS011;21476;51.652;7.852;2022-08-25T05:18:45;9.20;;;4.93;;
35372;SDS011;21476;51.652;7.852;2022-08-25T05:21:13;11.48;;;5.70;;
35372;SDS011;21476;51.652;7.852;2022-08-25T05:23:41;12.95;;;6.55;;
35372;SDS011;21476;51.652;7.852;2022-08-25T05:26:11;10.10;;;6.13;;
35372;SDS011;21476;51.652;7.852;2022-08-25T05:28:39;14.32;;;6.55;;
35372;SDS011;21476;51.652;7.852;2022-08-25T05:31:06;12.80;;;6.32;;
35372;SDS011;21476;51.652;7.852;2022-08-25T05:33:33;20.60;;;6.53;;
35372;SDS011;21476;51.652;7.852;2022-08-25T05:36:00;16.42;;;6.10;;
35372;SDS011;21476;51.652;7.852;2022-08-25T05:38:26;13.35;;;6.80;;
35372;SDS011;21476;51.652;7.852;2022-08-25T05:40:59;8.10;;;5.38;;
35372;SDS011;21476;51.652;7.852;2022-08-25T05:43:28;12.75;;;5.32;;
35372;SDS011;21476;51.652;7.852;2022-08-25T05:45:54;8.88;;;5.70;;
35372;SDS011;21476;51.652;7.852;2022-08-25T05:48:21;8.50;;;5.80;;
35372;SDS011;21476;51.652;7.852;2022-08-25T05:50:55;10.85;;;5.65;;
35372;SDS011;21476;51.652;7.852;2022-08-25T05:53:22;10.88;;;5.60;;
35372;SDS011;21476;51.652;7.852;2022-08-25T05:55:49;13.45;;;5.93;;
35372;SDS011;21476;51.652;7.852;2022-08-25T05:58:16;8.85;;;5.32;;
35372;SDS011;21476;51.652;7.852;2022-08-25T06:00:42;8.02;;;5.20;;
35372;SDS011;21476;51.652;7.852;2022-08-25T06:03:08;9.57;;;5.63;;
35372;SDS011;21476;51.652;7.852;2022-08-25T06:05:34;8.98;;;5.70;;
35372;SDS011;21476;51.652;7.852;2022-08-25T06:07:59;9.27;;;5.78;;
35372;SDS011;21476;51.652;7.852;2022-08-25T06:10:25;10.00;;;5.35;;
35372;SDS011;21476;51.652;7.852;2022-08-25T06:12:51;23.00;;;5.72;;
35372;SDS011;21476;51.652;7.852;2022-08-25T06:15:18;9.18;;;6.22;;
35372;SDS011;21476;51.652;7.852;2022-08-25T06:17:46;10.02;;;5.78;;
35372;SDS011;21476;51.652;7.852;2022-08-25T06:20:17;11.75;;;5.60;;
35372;SDS011;21476;51.652;7.852;2022-08-25T06:22:44;11.63;;;5.78;;
35372;SDS011;21476;51.652;7.852;2022-08-25T06:25:11;8.02;;;5.57;;
35372;SDS011;21476;51.652;7.852;2022-08-25T06:27:38;15.05;;;6.93;;
35372;SDS011;21476;51.652;7.852;2022-08-25T06:30:06;11.00;;;5.47;;
35372;SDS011;21476;51.652;7.852;2022-08-25T06:32:33;9.52;;;5.30;;
35372;SDS011;21476;51.652;7.852;2022-08-25T06:35:02;9.63;;;5.50;;
35372;SDS011;21476;51.652;7.852;2022-08-25T06:37:28;13.20;;;6.15;;
35372;SDS011;21476;51.652;7.852;2022-08-25T06:39:54;7.35;;;5.20;;
35372;SDS011;21476;51.652;7.852;2022-08-25T06:42:19;9.48;;;5.07;;
35372;SDS011;21476;51.652;7.852;2022-08-25T06:44:46;11.45;;;5.47;;
35372;SDS011;21476;51.652;7.852;2022-08-25T06:47:12;10.70;;;5.22;;
35372;SDS011;21476;51.652;7.852;2022-08-25T06:49:39;9.07;;;4.88;;
35372;SDS011;21476;51.652;7.852;2022-08-25T06:52:06;6.45;;;5.32;;
35372;SDS011;21476;51.652;7.852;2022-08-25T06:54:32;10.57;;;5.50;;
35372;SDS011;21476;51.652;7.852;2022-08-25T06:56:58;11.70;;;5.75;;
35372;SDS011;21476;51.652;7.852;2022-08-25T06:59:25;8.13;;;5.05;;
35372;SDS011;21476;51.652;7.852;2022-08-25T07:01:51;10.88;;;5.38;;
35372;SDS011;21476;51.652;7.852;2022-08-25T07:04:16;12.73;;;5.22;;
35372;SDS011;21476;51.652;7.852;2022-08-25T07:06:42;11.98;;;5.55;;
35372;SDS011;21476;51.652;7.852;2022-08-25T07:09:09;8.32;;;5.57;;
35372;SDS011;21476;51.652;7.852;2022-08-25T07:11:37;10.38;;;5.75;;
35372;SDS011;21476;51.652;7.852;2022-08-25T07:14:04;7.75;;;5.05;;
35372;SDS011;21476;51.652;7.852;2022-08-25T07:16:31;10.32;;;5.28;;
35372;SDS011;21476;51.652;7.852;2022-08-25T07:18:59;9.95;;;5.28;;
35372;SDS011;21476;51.652;7.852;2022-08-25T07:21:25;9.27;;;5.43;;
35372;SDS011;21476;51.652;7.852;2022-08-25T07:23:53;9.05;;;5.28;;
35372;SDS011;21476;51.652;7.852;2022-08-25T07:26:21;10.55;;;5.63;;
35372;SDS011;21476;51.652;7.852;2022-08-25T07:28:49;7.03;;;5.30;;
35372;SDS011;21476;51.652;7.852;2022-08-25T07:31:15;11.25;;;5.55;;
35372;SDS011;21476;51.652;7.852;2022-08-25T07:33:41;11.02;;;6.03;;
35372;SDS011;21476;51.652;7.852;2022-08-25T07:36:27;8.32;;;5.50;;
35372;SDS011;21476;51.652;7.852;2022-08-25T07:38:52;12.70;;;4.82;;
35372;SDS011;21476;51.652;7.852;2022-08-25T07:41:18;9.60;;;5.95;;
35372;SDS011;21476;51.652;7.852;2022-08-25T07:43:44;10.05;;;5.45;;
35372;SDS011;21476;51.652;7.852;2022-08-25T07:46:09;11.45;;;6.22;;
35372;SDS011;21476;51.652;7.852;2022-08-25T07:48:35;10.75;;;5.47;;
35372;SDS011;21476;51.652;7.852;2022-08-25T07:51:06;6.70;;;4.95;;
35372;SDS011;21476;51.652;7.852;2022-08-25T07:55:59;10.38;;;5.00;;
35372;SDS011;21476;51.652;7.852;2022-08-25T07:58:25;10.95;;;5.47;;
35372;SDS011;21476;51.652;7.852;2022-08-25T08:00:51;9.32;;;5.40;;
35372;SDS011;21476;51.652;7.852;2022-08-25T08:03:17;10.93;;;5.75;;
35372;SDS011;21476;51.652;7.852;2022-08-25T08:05:44;14.57;;;4.85;;
35372;SDS011;21476;51.652;7.852;2022-08-25T08:08:11;10.77;;;5.90;;
35372;SDS011;21476;51.652;7.852;2022-08-25T08:10:40;10.55;;;5.22;;
35372;SDS011;21476;51.652;7.852;2022-08-25T08:13:05;12.13;;;5.85;;
35372;SDS011;21476;51.652;7.852;2022-08-25T08:15:32;8.93;;;5.45;;
35372;SDS011;21476;51.652;7.852;2022-08-25T08:17:58;14.00;;;5.45;;
35372;SDS011;21476;51.652;7.852;2022-08-25T08:20:24;11.50;;;6.00;;
35372;SDS011;21476;51.652;7.852;2022-08-25T08:22:50;10.43;;;5.78;;
35372;SDS011;21476;51.652;7.852;2022-08-25T08:25:16;8.45;;;5.10;;
35372;SDS011;21476;51.652;7.852;2022-08-25T08:27:42;12.75;;;6.30;;
35372;SDS011;21476;51.652;7.852;2022-08-25T08:30:10;8.48;;;5.38;;
35372;SDS011;21476;51.652;7.852;2022-08-25T08:32:36;9.05;;;5.50;;
35372;SDS011;21476;51.652;7.852;2022-08-25T08:35:02;11.52;;;6.07;;
35372;SDS011;21476;51.652;7.852;2022-08-25T08:37:30;8.52;;;4.82;;
35372;SDS011;21476;51.652;7.852;2022-08-25T08:39:56;11.48;;;5.45;;
35372;SDS011;21476;51.652;7.852;2022-08-25T08:47:46;11.43;;;6.00;;
35372;SDS011;21476;51.652;7.852;2022-08-25T08:53:08;10.63;;;5.47;;
35372;SDS011;21476;51.652;7.852;2022-08-25T08:58:15;10.57;;;5.38;;
35372;SDS011;21476;51.652;7.852;2022-08-25T09:00:46;8.57;;;5.50;;
35372;SDS011;21476;51.652;7.852;2022-08-25T09:03:25;9.77;;;5.93;;
35372;SDS011;21476;51.652;7.852;2022-08-25T09:05:56;10.48;;;5.75;;
35372;SDS011;21476;51.652;7.852;2022-08-25T09:08:26;9.38;;;4.72;;
35372;SDS011;21476;51.652;7.852;2022-08-25T09:14:01;11.80;;;5.05;;
35372;SDS011;21476;51.652;7.852;2022-08-25T09:16:45;10.43;;;5.47;;
35372;SDS011;21476;51.652;7.852;2022-08-25T09:28:21;9.57;;;4.63;;
35372;SDS011;21476;51.652;7.852;2022-08-25T09:31:13;9.70;;;4.38;;
35372;SDS011;21476;51.652;7.852;2022-08-25T09:33:54;6.45;;;4.10;;
35372;SDS011;21476;51.652;7.852;2022-08-25T09:36:21;35.22;;;7.18;;
35372;SDS011;21476;51.652;7.852;2022-08-25T09:38:47;14.00;;;4.55;;
35372;SDS011;21476;51.652;7.852;2022-08-25T09:41:15;10.50;;;4.60;;
35372;SDS011;21476;51.652;7.852;2022-08-25T09:43:43;6.80;;;4.15;;
35372;SDS011;21476;51.652;7.852;2022-08-25T09:46:26;7.65;;;3.97;;
35372;SDS011;21476;51.652;7.852;2022-08-25T09:48:56;11.30;;;4.68;;
35372;SDS011;21476;51.652;7.852;2022-08-25T09:51:35;8.50;;;3.55;;
35372;SDS011;21476;51.652;7.852;2022-08-25T10:01:51;6.97;;;4.05;;
35372;SDS011;21476;51.652;7.852;2022-08-25T10:04:29;6.75;;;3.88;;
35372;SDS011;21476;51.652;7.852;2022-08-25T10:07:02;9.75;;;4.55;;
35372;SDS011;21476;51.652;7.852;2022-08-25T10:09:51;9.63;;;4.47;;
35372;SDS011;21476;51.652;7.852;2022-08-25T10:12:23;7.32;;;3.92;;
35372;SDS011;21476;51.652;7.852;2022-08-25T10:14:57;9.40;;;4.05;;
35372;SDS011;21476;51.652;7.852;2022-08-25T10:17:27;9.35;;;4.20;;
35372;SDS011;21476;51.652;7.852;2022-08-25T10:22:41;7.63;;;4.15;;
35372;SDS011;21476;51.652;7.852;2022-08-25T10:25:09;7.53;;;3.60;;
35372;SDS011;21476;51.652;7.852;2022-08-25T10:35:50;7.60;;;3.65;;
35372;SDS011;21476;51.652;7.852;2022-08-25T10:38:29;13.52;;;4.43;;
35372;SDS011;21476;51.652;7.852;2022-08-25T10:41:16;9.13;;;4.15;;
35372;SDS011;21476;51.652;7.852;2022-08-25T10:44:25;15.25;;;4.22;;
35372;SDS011;21476;51.652;7.852;2022-08-25T10:49:47;7.85;;;4.18;;
35372;SDS011;21476;51.652;7.852;2022-08-25T10:55:00;10.63;;;4.45;;
35372;SDS011;21476;51.652;7.852;2022-08-25T10:57:56;6.80;;;4.03;;
35372;SDS011;21476;51.652;7.852;2022-08-25T11:00:36;9.00;;;4.55;;
35372;SDS011;21476;51.652;7.852;2022-08-25T11:03:18;17.10;;;4.50;;
35372;SDS011;21476;51.652;7.852;2022-08-25T11:05:57;7.97;;;4.20;;
35372;SDS011;21476;51.652;7.852;2022-08-25T11:11:03;9.95;;;4.35;;
35372;SDS011;21476;51.652;7.852;2022-08-25T11:13:42;12.70;;;4.40;;
35372;SDS011;21476;51.652;7.852;2022-08-25T11:16:13;7.65;;;3.95;;
35372;SDS011;21476;51.652;7.852;2022-08-25T11:19:06;8.38;;;4.55;;
35372;SDS011;21476;51.652;7.852;2022-08-25T11:27:09;8.07;;;4.50;;
35372;SDS011;21476;51.652;7.852;2022-08-25T11:29:39;7.57;;;3.97;;
35372;SDS011;21476;51.652;7.852;2022-08-25T11:32:07;5.78;;;4.10;;
35372;SDS011;21476;51.652;7.852;2022-08-25T11:34:34;7.60;;;4.47;;
35372;SDS011;21476;51.652;7.852;2022-08-25T11:37:11;11.18;;;5.18;;
35372;SDS011;21476;51.652;7.852;2022-08-25T11:39:58;11.15;;;4.50;;
35372;SDS011;21476;51.652;7.852;2022-08-25T11:50:27;10.27;;;5.05;;
35372;SDS011;21476;51.652;7.852;2022-08-25T11:52:58;9.48;;;4.60;;
35372;SDS011;21476;51.652;7.852;2022-08-25T12:01:02;6.82;;;4.50;;
35372;SDS011;21476;51.652;7.852;2022-08-25T12:19:26;7.10;;;4.35;;
35372;SDS011;21476;51.652;7.852;2022-08-25T12:21:53;10.68;;;4.80;;
35372;SDS011;21476;51.652;7.852;2022-08-25T12:24:24;9.77;;;4.55;;
35372;SDS011;21476;51.652;7.852;2022-08-25T12:36:24;12.43;;;5.35;;
35372;SDS011;21476;51.652;7.852;2022-08-25T12:38:26;8.77;;;4.95;;
35372;SDS011;21476;51.652;7.852;2022-08-25T12:40:53;11.48;;;4.80;;
35372;SDS011;21476;51.652;7.852;2022-08-25T12:43:33;8.82;;;4.68;;
35372;SDS011;21476;51.652;7.852;2022-08-25T12:48:55;7.85;;;4.50;;
35372;SDS011;21476;51.652;7.852;2022-08-25T12:51:25;7.65;;;4.38;;
35372;SDS011;21476;51.652;7.852;2022-08-25T12:56:55;7.85;;;4.90;;
35372;SDS011;21476;51.652;7.852;2022-08-25T12:59:36;8.18;;;4.35;;
35372;SDS011;21476;51.652;7.852;2022-08-25T13:07:54;9.55;;;4.55;;
35372;SDS011;21476;51.652;7.852;2022-08-25T13:16:22;7.32;;;4.70;;
35372;SDS011;21476;51.652;7.852;2022-08-25T13:18:52;7.97;;;4.75;;
35372;SDS011;21476;51.652;7.852;2022-08-25T13:21:24;6.47;;;4.25;;
35372;SDS011;21476;51.652;7.852;2022-08-25T13:23:59;8.95;;;5.13;;
35372;SDS011;21476;51.652;7.852;2022-08-25T13:26:32;6.95;;;4.70;;
35372;SDS011;21476;51.652;7.852;2022-08-25T13:31:32;7.15;;;4.65;;
35372;SDS011;21476;51.652;7.852;2022-08-25T13:34:07;9.05;;;4.88;;
35372;SDS011;21476;51.652;7.852;2022-08-25T13:36:42;6.85;;;4.57;;
35372;SDS011;21476;51.652;7.852;2022-08-25T13:39:28;9.60;;;4.95;;
35372;SDS011;21476;51.652;7.852;2022-08-25T13:41:57;12.00;;;4.65;;
35372;SDS011;21476;51.652;7.852;2022-08-25T13:44:23;8.05;;;5.18;;
35372;SDS011;21476;51.652;7.852;2022-08-25T13:50:06;11.02;;;5.10;;
35372;SDS011;21476;51.652;7.852;2022-08-25T13:52:40;7.85;;;4.45;;
35372;SDS011;21476;51.652;7.852;2022-08-25T13:55:06;6.53;;;4.60;;
35372;SDS011;21476;51.652;7.852;2022-08-25T13:57:32;8.50;;;4.85;;
35372;SDS011;21476;51.652;7.852;2022-08-25T14:00:03;8.02;;;4.22;;
35372;SDS011;21476;51.652;7.852;2022-08-25T14:02:43;7.22;;;4.40;;
35372;SDS011;21476;51.652;7.852;2022-08-25T14:05:15;10.60;;;4.97;;
35372;SDS011;21476;51.652;7.852;2022-08-25T14:08:00;8.93;;;5.15;;
35372;SDS011;21476;51.652;7.852;2022-08-25T14:10:35;9.10;;;4.47;;
35372;SDS011;21476;51.652;7.852;2022-08-25T14:13:07;10.23;;;6.05;;
35372;SDS011;21476;51.652;7.852;2022-08-25T14:15:33;7.82;;;4.95;;
35372;SDS011;21476;51.652;7.852;2022-08-25T14:18:01;6.30;;;4.60;;
35372;SDS011;21476;51.652;7.852;2022-08-25T14:20:30;8.43;;;4.85;;
35372;SDS011;21476;51.652;7.852;2022-08-25T14:22:58;9.32;;;4.63;;
35372;SDS011;21476;51.652;7.852;2022-08-25T14:25:29;10.73;;;4.88;;
35372;SDS011;21476;51.652;7.852;2022-08-25T14:27:59;8.93;;;4.38;;
35372;SDS011;21476;51.652;7.852;2022-08-25T14:30:28;8.68;;;4.25;;
35372;SDS011;21476;51.652;7.852;2022-08-25T14:32:55;8.98;;;4.72;;
35372;SDS011;21476;51.652;7.852;2022-08-25T14:35:21;9.88;;;4.68;;
35372;SDS011;21476;51.652;7.852;2022-08-25T14:37:47;7.03;;;4.35;;
35372;SDS011;21476;51.652;7.852;2022-08-25T14:40:13;12.20;;;4.78;;
35372;SDS011;21476;51.652;7.852;2022-08-25T14:42:44;8.90;;;4.18;;
35372;SDS011;21476;51.652;7.852;2022-08-25T14:45:11;10.63;;;4.75;;
35372;SDS011;21476;51.652;7.852;2022-08-25T14:47:38;9.75;;;4.85;;
35372;SDS011;21476;51.652;7.852;2022-08-25T14:50:04;8.07;;;4.80;;
35372;SDS011;21476;51.652;7.852;2022-08-25T14:52:31;9.77;;;4.75;;
35372;SDS011;21476;51.652;7.852;2022-08-25T14:54:57;8.35;;;4.47;;
35372;SDS011;21476;51.652;7.852;2022-08-25T14:57:23;6.82;;;4.28;;
35372;SDS011;21476;51.652;7.852;2022-08-25T14:59:49;6.35;;;4.30;;
35372;SDS011;21476;51.652;7.852;2022-08-25T15:02:16;8.73;;;4.25;;
35372;SDS011;21476;51.652;7.852;2022-08-25T15:04:51;11.05;;;5.10;;
35372;SDS011;21476;51.652;7.852;2022-08-25T15:07:21;9.73;;;4.70;;
35372;SDS011;21476;51.652;7.852;2022-08-25T15:10:06;9.07;;;5.13;;
35372;SDS011;21476;51.652;7.852;2022-08-25T15:12:33;11.95;;;5.28;;
35372;SDS011;21476;51.652;7.852;2022-08-25T15:14:59;8.50;;;4.50;;
35372;SDS011;21476;51.652;7.852;2022-08-25T15:17:28;8.88;;;4.75;;
35372;SDS011;21476;51.652;7.852;2022-08-25T15:19:54;9.27;;;4.55;;
35372;SDS011;21476;51.652;7.852;2022-08-25T15:22:21;9.43;;;4.50;;
35372;SDS011;21476;51.652;7.852;2022-08-25T15:24:47;8.75;;;4.28;;
35372;SDS011;21476;51.652;7.852;2022-08-25T15:27:13;7.93;;;3.95;;
35372;SDS011;21476;51.652;7.852;2022-08-25T15:29:39;8.95;;;4.50;;
35372;SDS011;21476;51.652;7.852;2022-08-25T15:32:06;8.95;;;4.45;;
35372;SDS011;21476;51.652;7.852;2022-08-25T15:34:32;8.95;;;4.28;;
35372;SDS011;21476;51.652;7.852;2022-08-25T15:37:00;7.03;;;4.45;;
35372;SDS011;21476;51.652;7.852;2022-08-25T15:39:35;11.50;;;4.88;;
35372;SDS011;21476;51.652;7.852;2022-08-25T15:42:02;6.90;;;4.50;;
35372;SDS011;21476;51.652;7.852;2022-08-25T15:44:28;9.98;;;4.78;;
35372;SDS011;21476;51.652;7.852;2022-08-25T15:46:55;9.13;;;4.80;;
35372;SDS011;21476;51.652;7.852;2022-08-25T15:49:22;6.47;;;4.25;;
35372;SDS011;21476;51.652;7.852;2022-08-25T15:51:48;7.28;;;4.38;;
35372;SDS011;21476;51.652;7.852;2022-08-25T15:54:14;7.75;;;4.35;;
35372;SDS011;21476;51.652;7.852;2022-08-25T15:56:39;5.35;;;3.67;;
35372;SDS011;21476;51.652;7.852;2022-08-25T15:59:05;7.15;;;4.28;;
35372;SDS011;21476;51.652;7.852;2022-08-25T16:01:31;7.03;;;3.97;;
35372;SDS011;21476;51.652;7.852;2022-08-25T16:03:57;8.65;;;4.75;;
35372;SDS011;21476;51.652;7.852;2022-08-25T16:06:23;11.75;;;4.60;;
35372;SDS011;21476;51.652;7.852;2022-08-25T16:08:50;9.35;;;4.15;;
35372;SDS011;21476;51.652;7.852;2022-08-25T16:11:17;7.25;;;4.10;;
35372;SDS011;21476;51.652;7.852;2022-08-25T16:13:44;6.43;;;4.15;;
35372;SDS011;21476;51.652;7.852;2022-08-25T16:16:11;6.50;;;4.20;;
35372;SDS011;21476;51.652;7.852;2022-08-25T16:18:38;7.88;;;4.15;;
35372;SDS011;21476;51.652;7.852;2022-08-25T16:21:05;9.38;;;4.63;;
35372;SDS011;21476;51.652;7.852;2022-08-25T16:23:37;8.75;;;4.18;;
35372;SDS011;21476;51.652;7.852;2022-08-25T16:26:04;9.82;;;4.78;;
35372;SDS011;21476;51.652;7.852;2022-08-25T16:28:32;8.40;;;4.10;;
35372;SDS011;21476;51.652;7.852;2022-08-25T16:30:59;8.63;;;4.93;;
35372;SDS011;21476;51.652;7.852;2022-08-25T16:33:25;7.88;;;3.80;;
35372;SDS011;21476;51.652;7.852;2022-08-25T16:35:51;9.80;;;4.75;;
35372;SDS011;21476;51.652;7.852;2022-08-25T16:38:17;6.82;;;3.90;;
35372;SDS011;21476;51.652;7.852;2022-08-25T16:40:44;11.32;;;5.05;;
35372;SDS011;21476;51.652;7.852;2022-08-25T16:43:10;9.15;;;4.07;;
35372;SDS011;21476;51.652;7.852;2022-08-25T16:45:36;7.82;;;4.47;;
35372;SDS011;21476;51.652;7.852;2022-08-25T16:48:03;5.47;;;3.72;;
35372;SDS011;21476;51.652;7.852;2022-08-25T16:50:29;9.35;;;4.40;;
35372;SDS011;21476;51.652;7.852;2022-08-25T16:52:56;8.45;;;3.83;;
35372;SDS011;21476;51.652;7.852;2022-08-25T16:55:40;9.07;;;4.22;;
35372;SDS011;21476;51.652;7.852;2022-08-25T16:58:06;10.18;;;4.22;;
35372;SDS011;21476;51.652;7.852;2022-08-25T17:00:34;8.32;;;4.65;;